Time;durP1;ratioP1;P1;durP2;ratioP2;P2;SDS_P1;SDS_P2;PMS_P1;PMS_P2;Temp;Humidity;BMP_temperature;BMP_pressure;BME280_temperature;BME280_humidity;BME280_pressure;Samples;Min_cycle;Max_cycle;Signal;HPM_P1;HPM_P2
2023/09/08 00:00:20;;;;;;;19.90;16.30;;;;;;;17.68;63.03;101305.65;109403;1273;23740;-80
2023/09/08 00:03:17;;;;;;;19.50;16.40;;;;;;;17.69;63.03;101309.29;109235;1273;21972;-79
2023/09/08 00:06:31;;;;;;;19.30;17.50;;;;;;;17.63;63.42;101304.85;109478;1273;21987;-80
2023/09/08 00:09:29;;;;;;;23.50;17.70;;;;;;;17.60;63.42;101307.46;109532;1273;23706;-80
2023/09/08 00:12:09;;;;;;;19.40;17.30;;;;;;;17.59;63.66;101308.06;108977;1278;21989;-80
2023/09/08 00:14:48;;;;;;;23.70;17.50;;;;;;;17.60;63.84;101312.07;108822;1277;21990;-82
2023/09/08 00:17:36;;;;;;;20.60;17.20;;;;;;;17.60;63.94;101308.36;109262;1277;22367;-80
2023/09/08 00:20:26;;;;;;;22.70;17.90;;;;;;;17.61;63.94;101306.70;109643;1271;23611;-81
2023/09/08 00:23:33;;;;;;;23.50;18.00;;;;;;;17.60;63.90;101305.59;109808;1271;21985;-79
2023/09/08 00:26:34;;;;;;;18.00;16.10;;;;;;;17.60;63.94;101305.54;110345;1265;22027;-79
2023/09/08 00:30:01;;;;;;;;;;;;;;;;;;;;;
2023/09/08 00:33:14;;;;;;;;;;;;;;;;;;;;;
2023/09/08 00:36:41;;;;;;;20.20;16.00;;;;;;;17.55;64.21;101300.53;111192;1256;23705;-78
2023/09/08 00:40:00;;;;;;;;;;;;;;;;;;;;;
2023/09/08 00:43:01;;;;;;;23.00;18.50;;;;;;;17.54;64.10;101292.15;110906;1260;21966;-79
2023/09/08 00:46:27;;;;;;;23.00;18.00;;;;;;;17.53;64.04;101293.08;110807;1260;21990;-80
2023/09/08 00:50:35;;;;;;;;;;;;;;;;;;;;;
2023/09/08 00:54:04;;;;;;;20.20;18.20;;;;;;;17.44;64.30;101288.77;110447;1267;21973;-81
2023/09/08 01:01:18;;;;;;;;;;;;;;;;;;;;;
2023/09/08 01:04:27;;;;;;;20.60;17.60;;;;;;;17.37;64.45;101285.98;110391;1265;21968;-80
2023/09/08 01:10:41;;;;;;;21.00;18.40;;;;;;;17.31;64.29;101286.09;110092;1267;22094;-81
2023/09/08 01:13:40;;;;;;;21.30;18.10;;;;;;;17.29;64.50;101285.16;110235;1265;22168;-80
2023/09/08 01:16:37;;;;;;;23.30;19.10;;;;;;;17.26;64.53;101282.31;110355;1265;23618;-79
2023/09/08 01:19:54;;;;;;;;;;;;;;;;;;;;;
2023/09/08 01:23:19;;;;;;;21.30;19.20;;;;;;;17.18;64.84;101284.27;109797;1270;21973;-78
2023/09/08 01:26:14;;;;;;;20.50;18.50;;;;;;;17.14;64.96;101285.55;109327;1276;21992;-79
2023/09/08 01:29:24;;;;;;;26.60;19.30;;;;;;;17.12;65.14;101283.91;109068;1275;23049;-80
2023/09/08 01:32:04;;;;;;;23.50;18.60;;;;;;;17.11;65.16;101282.17;109198;1276;22000;-80
2023/09/08 01:35:00;;;;;;;21.90;19.70;;;;;;;17.11;65.07;101278.33;109149;1276;23062;-80
2023/09/08 01:37:33;;;;;;;23.90;19.60;;;;;;;17.07;65.07;101276.41;109234;1276;22031;-80
2023/09/08 01:40:18;;;;;;;21.20;19.10;;;;;;;17.04;65.06;101276.74;109419;1270;22308;-79
2023/09/08 01:43:12;;;;;;;23.10;19.60;;;;;;;17.00;65.13;101276.23;109983;1262;22187;-80
2023/09/08 01:45:54;;;;;;;21.70;19.70;;;;;;;16.95;65.17;101274.00;110715;1261;21967;-80
2023/09/08 01:48:57;;;;;;;20.60;18.60;;;;;;;16.91;65.43;101273.70;111362;1256;21920;-80
2023/09/08 01:52:18;;;;;;;21.60;19.10;;;;;;;16.85;65.55;101274.51;111430;1255;21953;-80
2023/09/08 01:55:15;;;;;;;19.90;17.90;;;;;;;16.83;65.62;101270.39;111225;1256;22244;-81
2023/09/08 01:58:06;;;;;;;23.20;20.10;;;;;;;16.81;65.74;101269.59;110880;1256;22356;-80
2023/09/08 02:01:01;;;;;;;23.50;21.00;;;;;;;16.79;65.85;101268.46;111180;1256;22392;-80
2023/09/08 02:04:16;;;;;;;24.60;21.90;;;;;;;16.76;65.83;101269.64;111199;1256;21957;-80
2023/09/08 02:07:39;;;;;;;;;;;;;;;;;;;;;
2023/09/08 02:10:40;;;;;;;22.90;20.50;;;;;;;16.68;66.10;101270.23;110981;1260;21979;-80
2023/09/08 02:13:31;;;;;;;23.10;20.70;;;;;;;16.66;66.10;101271.38;111053;1260;22529;-80
2023/09/08 02:16:29;;;;;;;22.20;19.40;;;;;;;16.65;66.20;101275.66;110966;1260;21942;-80
2023/09/08 02:19:08;;;;;;;24.10;20.00;;;;;;;16.61;66.28;101274.23;110849;1260;22447;-79
2023/09/08 02:21:56;;;;;;;22.00;19.70;;;;;;;16.58;66.16;101273.87;110999;1260;23687;-79
2023/09/08 02:24:38;;;;;;;21.70;19.50;;;;;;;16.55;66.27;101273.27;110953;1260;21980;-79
2023/09/08 02:27:42;;;;;;;22.30;19.90;;;;;;;16.51;66.46;101269.11;110920;1260;22009;-80
2023/09/08 02:30:30;;;;;;;22.10;20.00;;;;;;;16.48;66.64;101266.59;111324;1256;23834;-79
2023/09/08 02:33:15;;;;;;;24.40;22.20;;;;;;;16.47;66.69;101267.38;111147;1256;23715;-79
2023/09/08 02:36:14;;;;;;;25.50;23.00;;;;;;;16.44;66.75;101265.25;111113;1248;23021;-79
2023/09/08 02:39:19;;;;;;;22.50;20.20;;;;;;;16.40;66.91;101260.34;110994;1255;21962;-79
2023/09/08 02:42:12;;;;;;;25.00;22.50;;;;;;;16.37;66.95;101258.70;110786;1259;24948;-80
2023/09/08 02:45:03;;;;;;;23.40;21.20;;;;;;;16.35;67.07;101255.08;111122;1259;21957;-79
2023/09/08 02:47:47;;;;;;;25.40;22.90;;;;;;;16.33;66.92;101254.14;111035;1259;24462;-79
2023/09/08 02:50:54;;;;;;;;;;;;;;;;;;;;;
2023/09/08 02:53:36;;;;;;;25.80;23.50;;;;;;;16.28;67.15;101248.79;110743;1259;22507;-79
2023/09/08 02:56:24;;;;;;;23.80;21.50;;;;;;;16.25;67.21;101247.48;111117;1259;21982;-81
2023/09/08 02:59:09;;;;;;;26.60;22.20;;;;;;;16.23;67.36;101247.21;111042;1259;22947;-79
2023/09/08 03:02:01;;;;;;;25.70;23.00;;;;;;;16.21;67.44;101245.94;110693;1260;22133;-79
2023/09/08 03:05:00;;;;;;;27.00;24.30;;;;;;;16.21;67.50;101250.30;110193;1265;23029;-80
2023/09/08 03:08:06;;;;;;;25.30;22.70;;;;;;;16.18;67.68;101249.58;110405;1265;23869;-79
2023/09/08 03:10:53;;;;;;;;;;;;;;;;;;;;;
2023/09/08 03:13:42;;;;;;;;;;;;;;;;;;;;;
2023/09/08 03:16:31;;;;;;;28.20;22.40;;;;;;;16.09;67.58;101248.78;109214;1277;21983;-80
2023/09/08 03:19:37;;;;;;;27.40;23.70;;;;;;;16.05;67.50;101248.43;109157;1274;21991;-80
2023/09/08 03:22:30;;;;;;;25.20;22.60;;;;;;;16.00;67.76;101245.51;109440;1271;21997;-79
2023/09/08 03:25:17;;;;;;;26.50;23.50;;;;;;;15.98;67.90;101247.36;109300;1275;22312;-79
2023/09/08 03:28:11;;;;;;;26.00;23.00;;;;;;;15.97;68.00;101243.73;109319;1275;22058;-80
2023/09/08 03:31:08;;;;;;;25.70;23.40;;;;;;;15.96;68.12;101244.62;109436;1275;21980;-79
2023/09/08 03:34:14;;;;;;;29.60;26.90;;;;;;;15.93;68.06;101248.64;109347;1268;21990;-78
2023/09/08 03:37:01;;;;;;;31.70;27.10;;;;;;;15.90;68.04;101253.33;109163;1275;21988;-79
2023/09/08 03:39:46;;;;;;;28.60;24.80;;;;;;;15.82;67.98;101245.61;108948;1277;21986;-79
2023/09/08 03:42:34;;;;;;;33.90;25.40;;;;;;;15.82;67.98;101254.91;109156;1273;21975;-80
2023/09/08 03:45:20;;;;;;;28.40;24.70;;;;;;;15.77;68.17;101253.73;109640;1273;21996;-79
2023/09/08 03:48:23;;;;;;;28.80;25.00;;;;;;;15.75;68.24;101256.10;109990;1269;22075;-79
2023/09/08 03:51:14;;;;;;;28.10;24.00;;;;;;;15.69;68.35;101253.05;109844;1269;22030;-79
2023/09/08 03:53:49;;;;;;;30.30;25.10;;;;;;;15.67;68.52;101253.27;109805;1269;21963;-79
2023/09/08 03:56:39;;;;;;;28.90;24.40;;;;;;;15.66;68.70;101253.65;110648;1264;23610;-78
2023/09/08 03:59:39;;;;;;;28.90;24.90;;;;;;;15.65;68.73;101254.77;110901;1259;23780;-78
2023/09/08 04:02:25;;;;;;;28.20;24.20;;;;;;;15.61;68.90;101250.73;110790;1259;23580;-79
2023/09/08 04:05:26;;;;;;;30.80;24.50;;;;;;;15.59;68.93;101250.99;111028;1259;21947;-79
2023/09/08 04:08:17;;;;;;;33.80;25.20;;;;;;;15.51;69.11;101240.30;111055;1256;22005;-79
2023/09/08 04:11:32;;;;;;;28.60;25.60;;;;;;;15.50;69.11;101239.83;110756;1260;23687;-78
2023/09/08 04:14:38;;;;;;;32.70;27.30;;;;;;;15.52;69.22;101244.11;110880;1260;23730;-79
2023/09/08 04:17:32;;;;;;;38.00;25.60;;;;;;;15.52;69.22;101240.98;110725;1260;21955;-79
2023/09/08 04:20:21;;;;;;;30.50;27.10;;;;;;;15.48;69.21;101240.98;110684;1260;23643;-80
2023/09/08 04:23:07;;;;;;;27.80;25.10;;;;;;;15.48;69.39;101244.98;110976;1260;21960;-80
2023/09/08 04:25:52;;;;;;;31.50;25.60;;;;;;;15.48;69.48;101251.31;110756;1260;24503;-80
2023/09/08 04:28:44;;;;;;;32.00;26.40;;;;;;;15.47;69.52;101252.59;111042;1256;23874;-80
2023/09/08 04:31:36;;;;;;;30.00;25.10;;;;;;;15.48;69.64;101251.16;111104;1256;21956;-80
2023/09/08 04:34:17;;;;;;;32.80;25.50;;;;;;;15.47;69.56;101249.43;111259;1256;21979;-80
2023/09/08 04:37:01;;;;;;;29.90;26.70;;;;;;;15.49;69.61;101247.23;111209;1256;21969;-82
2023/09/08 04:39:46;;;;;;;32.70;26.40;;;;;;;15.50;69.90;101247.17;110862;1259;21984;-78
2023/09/08 04:42:50;;;;;;;31.00;27.30;;;;;;;15.53;69.91;101244.96;110285;1265;21981;-78
2023/09/08 04:46:03;;;;;;;50.50;32.50;;;;;;;15.54;70.11;101241.75;110621;1265;22067;-80
2023/09/08 04:49:22;;;;;;;62.40;36.30;;;;;;;15.57;70.17;101241.06;110673;1265;22004;-80
2023/09/08 04:52:19;;;;;;;40.70;30.10;;;;;;;15.59;70.11;101239.96;110614;1265;21978;-79
2023/09/08 04:56:08;;;;;;;;;;;;;;;;;;;;;
2023/09/08 05:00:21;;;;;;;30.70;27.70;;;;;;;15.61;70.33;101234.09;110077;1270;22107;-81
2023/09/08 05:03:20;;;;;;;31.50;27.60;;;;;;;15.67;70.42;101230.66;109634;1271;22311;-80
2023/09/08 05:06:59;;;;;;;33.90;27.50;;;;;;;15.76;70.44;101232.73;109529;1267;22017;-81
2023/09/08 05:09:50;;;;;;;28.60;25.90;;;;;;;15.85;70.31;101231.28;109197;1278;21981;-81
2023/09/08 05:13:26;;;;;;;27.90;25.30;;;;;;;15.95;70.28;101226.77;109218;1278;23081;-78
2023/09/08 05:17:23;;;;;;;28.90;25.90;;;;;;;16.20;69.69;101230.88;108040;1292;544725;-80
2023/09/08 05:20:43;;;;;;;28.60;25.80;;;;;;;16.21;69.75;101230.83;109517;1274;22000;-82
2023/09/08 05:24:33;;;;;;;;;;;;;;;;;;;;;
2023/09/08 05:28:10;;;;;;;26.90;24.10;;;;;;;16.36;69.76;101235.19;110001;1272;21980;-79
2023/09/08 05:31:17;;;;;;;29.50;25.90;;;;;;;16.50;69.63;101236.28;107510;1270;3274950;-84
2023/09/08 05:34:20;;;;;;;36.50;26.20;;;;;;;16.63;69.55;101240.25;109904;1271;22017;-80
2023/09/08 05:37:21;;;;;;;30.80;25.50;;;;;;;16.76;69.33;101239.41;110361;1260;21963;-84
2023/09/08 05:40:26;;;;;;;30.20;24.60;;;;;;;16.90;69.19;101244.87;110778;1258;21978;-83
2023/09/08 05:43:05;;;;;;;28.50;25.60;;;;;;;16.98;68.96;101232.38;111059;1260;22935;-83
2023/09/08 05:46:31;;;;;;;44.20;24.70;;;;;;;17.18;68.82;101242.80;111054;1260;21982;-83
2023/09/08 05:49:14;;;;;;;26.80;24.00;;;;;;;17.31;68.58;101246.34;111038;1260;23132;-81
2023/09/08 05:52:01;;;;;;;26.20;23.60;;;;;;;17.43;68.23;101243.44;111015;1260;22069;-85
2023/09/08 05:54:46;;;;;;;26.40;23.80;;;;;;;17.55;68.09;101244.20;110225;1266;23577;-82
2023/09/08 05:57:25;;;;;;;25.20;22.50;;;;;;;17.69;67.94;101245.92;109616;1273;22541;-77
2023/09/08 06:00:25;;;;;;;24.60;21.40;;;;;;;17.82;67.51;101244.75;110085;1268;22899;-82
2023/09/08 06:02:56;;;;;;;28.30;23.00;;;;;;;17.96;67.35;101241.90;110148;1268;21976;-84
2023/09/08 06:12:31;;;;;;;;;;;;;;;;;;;;;
2023/09/08 06:15:34;;;;;;;;;;;;;;;;;;;;;
2023/09/08 06:18:17;;;;;;;21.80;17.50;;;;;;;19.23;65.60;101243.29;110977;1256;21963;-76
2023/09/08 06:20:59;;;;;;;26.50;20.00;;;;;;;19.62;65.21;101253.65;110831;1255;23679;-77
2023/09/08 06:23:50;;;;;;;;;;;;;;;;;;;;;
2023/09/08 06:26:32;;;;;;;28.20;20.70;;;;;;;20.28;63.61;101241.36;110530;1261;23614;-76
2023/09/08 06:29:21;;;;;;;;;;;;;;;20.74;63.44;101242.30;110579;1261;23023;-76
2023/09/08 06:32:11;;;;;;;22.50;17.20;;;;;;;21.16;62.45;101240.02;110650;1261;21965;-77
2023/09/08 06:35:04;;;;;;;19.10;17.20;;;;;;;21.62;61.76;101242.91;109740;1265;22519;-77
2023/09/08 06:38:01;;;;;;;20.00;15.50;;;;;;;22.18;60.72;101244.21;109573;1269;23760;-77
2023/09/08 06:40:44;;;;;;;23.60;14.10;;;;;;;22.71;58.86;101244.60;109401;1270;22019;-78
2023/09/08 06:43:31;;;;;;;15.50;13.70;;;;;;;23.15;57.17;101246.50;110154;1265;23687;-76
2023/09/08 06:46:21;;;;;;;17.30;13.80;;;;;;;23.62;55.94;101247.65;109865;1265;23656;-77
2023/09/08 06:49:10;;;;;;;18.70;14.30;;;;;;;24.05;55.01;101250.23;110087;1265;22836;-75
2023/09/08 06:52:28;;;;;;;13.40;11.90;;;;;;;24.49;52.96;101249.91;110234;1260;21981;-77
2023/09/08 06:55:22;;;;;;;14.60;13.00;;;;;;;24.84;51.80;101248.24;110657;1261;24312;-78
2023/09/08 06:57:59;;;;;;;17.90;14.10;;;;;;;25.18;50.87;101245.09;110529;1260;21976;-77
2023/09/08 07:00:50;;;;;;;16.60;11.80;;;;;;;25.54;49.70;101241.50;109858;1267;23451;-78
2023/09/08 07:03:59;;;;;;;12.30;10.90;;;;;;;25.93;48.80;101243.10;109897;1267;22015;-77
2023/09/08 07:06:40;;;;;;;11.10;9.70;;;;;;;26.25;48.05;101243.57;110281;1263;23487;-77
2023/09/08 07:09:37;;;;;;;16.00;10.70;;;;;;;26.50;47.63;101242.80;110026;1267;21976;-77
2023/09/08 07:12:35;;;;;;;12.10;8.80;;;;;;;26.89;47.00;101240.80;109649;1267;23699;-77
2023/09/08 07:15:39;;;;;;;10.50;7.80;;;;;;;27.25;45.46;101240.66;109943;1267;24317;-76
2023/09/08 07:18:34;;;;;;;11.90;8.50;;;;;;;27.62;44.94;101245.05;110167;1262;21964;-78
2023/09/08 07:21:45;;;;;;;12.40;7.80;;;;;;;27.79;42.80;101246.05;110122;1266;23749;-77
2023/09/08 07:24:36;;;;;;;8.80;7.50;;;;;;;27.85;42.04;101245.15;110056;1266;21947;-78
2023/09/08 07:27:14;;;;;;;11.30;7.00;;;;;;;28.03;42.21;101240.02;109811;1266;23564;-77
2023/09/08 07:29:49;;;;;;;14.20;7.10;;;;;;;28.25;41.42;101237.67;109935;1261;21967;-78
2023/09/08 07:32:25;;;;;;;12.50;8.00;;;;;;;28.47;41.34;101239.67;110705;1260;21966;-81
2023/09/08 07:35:13;;;;;;;9.40;7.00;;;;;;;28.68;40.51;101239.52;110211;1266;22201;-80
2023/09/08 07:41:57;;;;;;;10.00;7.20;;;;;;;28.62;39.33;101238.87;109883;1269;21970;-81
2023/09/08 07:45:30;;;;;;;12.50;7.90;;;;;;;28.46;40.19;101233.31;109863;1269;23480;-78
2023/09/08 07:48:33;;;;;;;16.30;8.60;;;;;;;28.50;41.03;101235.02;110023;1257;23045;-79
2023/09/08 07:51:42;;;;;;;10.50;7.40;;;;;;;28.94;40.57;101234.00;109888;1269;21988;-79
2023/09/08 07:55:43;;;;;;;;;;;;;;;;;;;;;
2023/09/08 07:59:34;;;;;;;14.20;6.90;;;;;;;29.43;38.99;101236.38;109614;1273;21975;-79
2023/09/08 08:02:30;;;;;;;11.00;6.60;;;;;;;29.52;38.39;101231.64;109441;1273;21977;-81
2023/09/08 08:05:16;;;;;;;12.30;6.70;;;;;;;29.67;38.64;101231.37;109678;1272;21973;-79
2023/09/08 08:08:21;;;;;;;;;;;;;;;;;;;;;
2023/09/08 08:11:17;;;;;;;10.90;6.50;;;;;;;30.02;38.22;101231.65;109471;1273;23036;-80
2023/09/08 08:14:04;;;;;;;8.90;6.00;;;;;;;30.20;37.73;101228.80;109960;1269;22260;-80
2023/09/08 08:16:52;;;;;;;16.10;6.00;;;;;;;30.30;36.77;101227.05;110147;1263;22188;-78
2023/09/08 08:19:41;;;;;;;9.90;6.90;;;;;;;30.39;36.86;101231.48;110081;1264;23624;-78
2023/09/08 08:22:41;;;;;;;7.60;6.10;;;;;;;30.11;36.28;101231.34;109548;1269;23695;-79
2023/09/08 08:26:27;;;;;;;;;;;;;;;;;;;;;
2023/09/08 08:29:34;;;;;;;11.30;5.70;;;;;;;30.34;37.18;101228.04;108943;1280;21994;-80
2023/09/08 08:32:20;;;;;;;10.50;9.00;;;;;;;30.62;37.04;101236.45;108976;1280;21996;-80
2023/09/08 08:35:48;;;;;;;15.20;7.30;;;;;;;30.90;36.65;101219.62;108682;1275;21991;-80
2023/09/08 08:38:39;;;;;;;7.20;5.90;;;;;;;31.09;35.84;101224.65;109292;1275;22504;-80
2023/09/08 08:42:22;;;;;;;6.50;5.40;;;;;;;31.21;35.40;101225.00;109873;1270;22076;-81
2023/09/08 08:45:28;;;;;;;4.60;4.20;;;;;;;31.43;35.11;101218.55;109470;1275;22071;-80
2023/09/08 08:49:03;;;;;;;8.20;4.70;;;;;;;31.60;34.82;101215.21;108972;1277;23051;-78
2023/09/08 08:52:00;;;;;;;6.80;4.50;;;;;;;31.53;34.35;101208.58;108585;1284;21998;-79
2023/09/08 08:56:34;;;;;;;;;;;;;;;;;;;;;
2023/09/08 08:59:10;;;;;;;8.30;4.30;;;;;;;31.51;33.97;101200.98;108398;1289;21984;-79
2023/09/08 09:01:45;;;;;;;6.90;4.00;;;;;;;31.43;33.59;101196.41;108624;1289;22203;-81
2023/09/08 09:04:19;;;;;;;6.00;4.00;;;;;;;31.40;33.58;101187.06;108538;1283;22727;-79
2023/09/08 09:07:11;;;;;;;7.40;4.20;;;;;;;31.24;33.19;101195.83;109012;1276;21989;-80
2023/09/08 09:09:46;;;;;;;5.00;3.80;;;;;;;30.81;33.69;101190.39;109192;1276;22760;-79
2023/09/08 09:12:48;;;;;;;5.40;3.50;;;;;;;30.68;34.32;101185.32;109252;1276;23029;-81
2023/09/08 09:16:11;;;;;;;9.60;4.70;;;;;;;30.69;34.30;101187.88;109432;1274;23727;-80
2023/09/08 09:19:17;;;;;;;4.80;3.50;;;;;;;30.75;34.33;101185.85;109258;1265;23025;-79
2023/09/08 09:22:25;;;;;;;7.30;5.70;;;;;;;30.78;33.93;101185.30;109787;1271;23623;-81
2023/09/08 09:25:45;;;;;;;5.00;4.10;;;;;;;30.79;33.79;101180.92;109700;1273;23727;-79
2023/09/08 09:29:17;;;;;;;6.30;4.00;;;;;;;30.83;34.17;101176.71;110302;1261;22036;-80
2023/09/08 09:32:52;;;;;;;6.70;4.10;;;;;;;31.12;34.21;101177.75;110258;1263;21969;-80
2023/09/08 09:36:01;;;;;;;5.00;3.80;;;;;;;31.10;33.47;101178.73;110432;1266;23423;-80
2023/09/08 09:39:10;;;;;;;7.00;4.30;;;;;;;30.95;33.53;101176.47;110411;1252;22026;-79
2023/09/08 09:42:40;;;;;;;6.30;4.20;;;;;;;30.76;32.95;101172.75;110505;1266;21970;-80
2023/09/08 09:45:18;;;;;;;4.20;3.30;;;;;;;30.56;33.27;101175.56;110682;1264;22001;-81
2023/09/08 09:48:56;;;;;;;5.70;4.30;;;;;;;30.47;33.53;101173.46;110664;1263;23049;-78
2023/09/08 09:52:11;;;;;;;4.50;3.40;;;;;;;30.63;33.71;101167.02;110024;1269;23615;-80
2023/09/08 09:55:57;;;;;;;4.90;3.60;;;;;;;30.72;33.60;101167.70;109253;1278;22027;-78
2023/09/08 10:00:09;;;;;;;8.90;3.00;;;;;;;30.87;33.49;101163.84;109131;1277;21986;-79
2023/09/08 10:03:13;;;;;;;3.90;3.30;;;;;;;31.01;32.24;101165.12;108912;1283;22006;-80
2023/09/08 10:05:59;;;;;;;6.50;3.50;;;;;;;30.86;31.84;101163.44;108771;1283;22051;-79
2023/09/08 10:08:59;;;;;;;6.10;3.10;;;;;;;30.71;31.93;101158.30;108673;1283;21990;-80
2023/09/08 10:15:30;;;;;;;3.70;2.90;;;;;;;30.71;32.45;101154.91;108552;1290;22338;-79
2023/09/08 10:18:21;;;;;;;;;;;;;;;;;;;;;
2023/09/08 10:22:16;;;;;;;;;;;;;;;;;;;;;
2023/09/08 10:25:49;;;;;;;;;;;;;;;;;;;;;
2023/09/08 10:29:27;;;;;;;;;;;;;;;30.63;31.74;101143.57;109051;1282;22409;-82
2023/09/08 10:32:37;;;;;;;4.80;3.30;;;;;;;30.78;32.15;101142.27;109076;1282;21987;-78
2023/09/08 10:35:28;;;;;;;;;;;;;;;;;;;;;
2023/09/08 10:38:24;;;;;;;5.10;3.10;;;;;;;31.12;31.24;101136.45;108671;1282;22682;-78
2023/09/08 10:41:49;;;;;;;7.80;3.90;;;;;;;31.18;31.06;101133.63;109027;1280;22022;-78
2023/09/08 10:47:58;;;;;;;6.00;2.90;;;;;;;30.78;30.97;101128.19;109106;1273;22261;-87
2023/09/08 10:50:54;;;;;;;6.50;3.60;;;;;;;30.54;31.36;101124.21;109867;1272;22450;-83
2023/09/08 10:54:54;;;;;;;4.20;3.60;;;;;;;30.54;31.51;101120.27;109740;1272;22029;-82
2023/09/08 10:59:09;;;;;;;;;;;;;;;;;;;;;
2023/09/08 11:03:06;;;;;;;8.60;3.60;;;;;;;30.36;31.06;101115.36;109525;1274;23743;-81
2023/09/08 11:06:11;;;;;;;5.50;3.10;;;;;;;30.12;31.72;101121.41;109331;1280;23098;-83
2023/09/08 11:09:30;;;;;;;3.80;3.50;;;;;;;29.78;31.86;101122.60;108927;1286;23650;-82
2023/09/08 11:12:57;;;;;;;4.90;3.40;;;;;;;29.35;32.50;101118.72;108945;1286;22030;-81
2023/09/08 11:15:57;;;;;;;8.00;3.40;;;;;;;29.16;33.19;101114.44;109101;1278;22006;-82
2023/09/08 11:22:10;;;;;;;;;;;;;;;;;;;;;
2023/09/08 11:28:33;;;;;;;5.30;3.30;;;;;;;28.74;33.17;101110.89;108164;1292;23113;-82
2023/09/08 11:31:21;;;;;;;7.10;3.70;;;;;;;28.64;33.70;101100.46;108497;1292;22028;-84
2023/09/08 11:33:51;;;;;;;4.90;3.30;;;;;;;28.68;33.86;101097.00;108578;1284;22078;-83
2023/09/08 11:36:41;;;;;;;4.10;3.60;;;;;;;28.70;33.90;101099.70;108675;1282;21963;-82
2023/09/08 11:39:27;;;;;;;4.10;3.70;;;;;;;28.70;33.58;101098.42;109094;1279;21999;-81
2023/09/08 11:42:45;;;;;;;5.60;3.80;;;;;;;28.61;33.38;101099.50;109251;1279;21998;-80
2023/09/08 11:45:57;;;;;;;;;;;;;;;;;;;;;
2023/09/08 11:50:15;;;;;;;6.20;3.60;;;;;;;28.39;33.69;101091.19;109656;1273;21982;-84
2023/09/08 11:54:15;;;;;;;;;;;;;;;;;;;;;
2023/09/08 11:57:25;;;;;;;;;;;;;;;;;;;;;
2023/09/08 12:00:19;;;;;;;;;;;;;;;;;;;;;
2023/09/08 12:03:25;;;;;;;6.50;3.50;;;;;;;28.05;34.17;101089.18;109461;1277;21977;-86
2023/09/08 12:07:25;;;;;;;;;;;;;;;;;;;;;
2023/09/08 12:10:36;;;;;;;7.50;4.10;;;;;;;27.97;34.21;101085.88;109177;1281;22030;-86
2023/09/08 12:14:26;;;;;;;7.10;4.40;;;;;;;28.05;34.59;101087.73;109395;1280;22271;-88
2023/09/08 12:17:33;;;;;;;18.00;16.30;;;;;;;28.15;34.32;101080.54;109000;1286;21990;-88
2023/09/08 12:20:30;;;;;;;6.50;4.90;;;;;;;28.16;34.03;101078.23;108864;1286;21852;-86
2023/09/08 12:23:18;;;;;;;6.10;4.20;;;;;;;28.11;34.01;101071.80;109192;1283;22037;-89
2023/09/08 12:25:57;;;;;;;6.60;3.60;;;;;;;28.16;34.21;101067.56;109174;1283;22006;-86
2023/09/08 12:28:41;;;;;;;7.70;4.70;;;;;;;28.25;34.13;101065.52;109061;1279;22008;-85
2023/09/08 12:31:56;;;;;;;8.40;4.30;;;;;;;28.32;33.95;101063.42;110000;1271;21954;-85
2023/09/08 12:35:53;;;;;;;6.90;3.90;;;;;;;28.38;34.00;101063.54;109627;1277;22078;-88
2023/09/08 12:42:32;;;;;;;5.00;3.80;;;;;;;28.34;34.13;101051.54;109489;1280;22315;-85
2023/09/08 12:48:57;;;;;;;5.10;3.70;;;;;;;28.20;34.14;101053.64;109186;1282;21973;-88
2023/09/08 12:52:22;;;;;;;4.30;3.60;;;;;;;28.09;33.92;101049.05;109318;1282;23734;-88
2023/09/08 12:55:57;;;;;;;6.00;3.70;;;;;;;28.09;34.18;101046.21;109220;1282;21962;-89
2023/09/08 12:59:03;;;;;;;4.30;3.50;;;;;;;28.32;34.17;101038.86;108885;1283;543959;-87
2023/09/08 13:02:13;;;;;;;7.60;3.70;;;;;;;28.28;34.22;101036.76;110218;1270;21919;-88
2023/09/08 13:05:38;;;;;;;5.70;4.10;;;;;;;28.22;34.30;101031.61;111116;1265;23027;-86
2023/09/08 13:09:18;;;;;;;8.20;4.30;;;;;;;28.22;34.27;101035.63;110874;1265;23727;-88
2023/09/08 13:13:04;;;;;;;7.30;4.00;;;;;;;28.13;34.55;101041.36;107329;1260;5350608;-87
2023/09/08 13:16:00;;;;;;;11.40;5.70;;;;;;;28.08;34.72;101034.92;110785;1266;22339;-86
2023/09/08 13:19:46;;;;;;;6.70;4.20;;;;;;;28.10;34.83;101028.41;110927;1266;21979;-87
2023/09/08 13:23:01;;;;;;;4.60;3.70;;;;;;;28.12;34.93;101032.51;110904;1266;21954;-89
2023/09/08 13:25:38;;;;;;;9.20;4.70;;;;;;;28.16;34.86;101026.50;110529;1266;21968;-87
2023/09/08 13:28:55;;;;;;;6.90;4.50;;;;;;;28.21;34.73;101017.98;111324;1261;21978;-88
2023/09/08 13:31:49;;;;;;;6.10;3.70;;;;;;;28.23;34.72;101014.95;111191;1261;21982;-86
2023/09/08 13:34:35;;;;;;;4.80;4.10;;;;;;;28.25;34.74;101016.00;111525;1255;21942;-87
2023/09/08 13:47:28;;;;;;;11.30;4.10;;;;;;;28.21;34.79;101007.48;110711;1265;23605;-84
2023/09/08 13:50:56;;;;;;;8.60;4.40;;;;;;;28.15;35.15;101007.70;110490;1265;23603;-82
2023/09/08 13:54:38;;;;;;;9.00;4.60;;;;;;;28.10;34.88;101003.55;110598;1265;23105;-83
2023/09/08 13:58:08;;;;;;;;;;;;;;;;;;;;;
2023/09/08 14:00:53;;;;;;;8.40;4.60;;;;;;;28.10;35.12;100995.17;109657;1266;22021;-84
2023/09/08 14:03:39;;;;;;;6.50;3.80;;;;;;;28.09;35.14;100995.59;109862;1272;21942;-82
2023/09/08 14:06:40;;;;;;;7.70;4.00;;;;;;;28.06;35.08;100989.80;109739;1272;22737;-83
2023/09/08 14:09:26;;;;;;;9.50;6.70;;;;;;;28.04;35.06;100991.09;109716;1272;23702;-84
2023/09/08 14:12:37;;;;;;;5.50;3.40;;;;;;;28.04;34.82;100988.95;110043;1268;23034;-83
2023/09/08 14:15:57;;;;;;;12.40;8.40;;;;;;;27.97;34.90;100987.29;110213;1268;24440;-82
2023/09/08 14:18:50;;;;;;;7.50;4.90;;;;;;;27.97;34.87;100982.63;110345;1262;23625;-83
2023/09/08 14:21:58;;;;;;;8.00;3.80;;;;;;;27.95;34.90;100981.80;109222;1277;21990;-82
2023/09/08 14:25:08;;;;;;;11.10;5.60;;;;;;;27.97;35.03;100977.66;109300;1278;22017;-83
2023/09/08 14:28:22;;;;;;;5.90;4.10;;;;;;;27.95;35.18;100981.97;109213;1276;21993;-84
2023/09/08 14:31:25;;;;;;;9.40;4.00;;;;;;;27.92;34.87;100981.74;109396;1276;23624;-82
2023/09/08 14:34:44;;;;;;;;;;;;;;;;;;;;;
2023/09/08 14:37:39;;;;;;;6.20;4.00;;;;;;;27.86;35.23;100972.15;109310;1276;22000;-81
2023/09/08 14:41:07;;;;;;;6.90;3.50;;;;;;;27.87;35.14;100967.04;109394;1274;23765;-82
2023/09/08 14:44:21;;;;;;;6.30;4.00;;;;;;;27.82;34.87;100961.77;108945;1283;21990;-82
2023/09/08 14:47:12;;;;;;;5.20;3.50;;;;;;;27.80;34.95;100963.59;108998;1283;22037;-84
2023/09/08 14:50:41;;;;;;;;;;;;;;;;;;;;;
2023/09/08 14:53:47;;;;;;;6.20;4.10;;;;;;;27.75;34.94;100956.11;108696;1286;21980;-81
2023/09/08 14:57:02;;;;;;;7.50;4.50;;;;;;;27.67;35.14;100938.30;108668;1286;23699;-81
2023/09/08 15:08:02;;;;;;;10.40;4.80;;;;;;;27.67;35.28;100939.92;108803;1287;23618;-86
2023/09/08 15:10:49;;;;;;;5.30;4.30;;;;;;;27.75;35.26;100944.81;108571;1286;22004;-81
2023/09/08 15:13:17;;;;;;;5.30;3.30;;;;;;;27.78;35.17;100943.23;108918;1283;21985;-83
2023/09/08 15:16:01;;;;;;;8.80;4.10;;;;;;;27.79;34.86;100942.63;109079;1281;23710;-86
2023/09/08 15:19:14;;;;;;;8.00;5.50;;;;;;;27.77;34.69;100941.94;109034;1280;24377;-83
2023/09/08 15:22:52;;;;;;;12.40;5.20;;;;;;;27.74;34.80;100942.09;108803;1284;22075;-87
2023/09/08 15:26:56;;;;;;;;;;;;;;;;;;;;;
2023/09/08 15:30:12;;;;;;;10.70;4.80;;;;;;;27.60;35.37;100934.17;108611;1287;21998;-80
2023/09/08 15:33:22;;;;;;;;;;;;;;;;;;;;;
2023/09/08 15:40:27;;;;;;;6.60;4.50;;;;;;;27.52;35.25;100934.94;107629;1297;22020;-80
2023/09/08 15:43:44;;;;;;;5.10;4.20;;;;;;;27.52;35.33;100935.30;108042;1294;22538;-81
2023/09/08 15:47:27;;;;;;;;;;;;;;;;;;;;;
2023/09/08 15:50:35;;;;;;;8.90;4.20;;;;;;;27.48;35.44;100930.52;108006;1296;22018;-80
2023/09/08 15:54:03;;;;;;;;;;;;;;;;;;;;;
2023/09/08 15:57:43;;;;;;;9.20;4.10;;;;;;;27.43;35.49;100933.91;107807;1301;22476;-80
2023/09/08 16:00:43;;;;;;;;;;;;;;;;;;;;;
2023/09/08 16:07:25;;;;;;;7.20;2.80;;;;;;;27.40;35.19;100924.73;107246;1303;22780;-78